createdAt,value
2019-03-19T00:00:51.911Z,982.97
2019-03-19T00:01:51.803Z,982.98
2019-03-19T00:02:51.752Z,983.01
2019-03-19T00:03:51.635Z,983.02
2019-03-19T00:04:51.625Z,983.04
2019-03-19T00:05:51.471Z,983.02
2019-03-19T00:06:51.411Z,983.09
2019-03-19T00:07:51.327Z,983.05
2019-03-19T00:08:51.213Z,983.03
2019-03-19T00:09:51.186Z,982.99
2019-03-19T00:10:51.119Z,983.04
2019-03-19T00:11:51.052Z,983.06
2019-03-19T00:12:50.934Z,983.01
2019-03-19T00:13:50.857Z,983.01
2019-03-19T00:14:50.717Z,983.08
2019-03-19T00:15:50.751Z,983.07
2019-03-19T00:16:50.584Z,983.10
2019-03-19T00:17:50.458Z,983.08
2019-03-19T00:18:50.420Z,983.12
2019-03-19T00:19:50.380Z,983.09
2019-03-19T00:20:50.250Z,983.16
2019-03-19T00:21:50.157Z,983.15
2019-03-19T00:22:50.032Z,983.14
2019-03-19T00:23:50.030Z,983.16
2019-03-19T00:24:49.907Z,983.19
2019-03-19T00:25:49.821Z,983.19
2019-03-19T00:26:49.779Z,983.19
2019-03-19T00:27:49.673Z,983.18
2019-03-19T00:28:49.628Z,983.15
2019-03-19T00:29:49.485Z,983.18
2019-03-19T00:30:49.439Z,983.14
2019-03-19T00:31:49.409Z,983.15
2019-03-19T00:32:49.221Z,983.17
2019-03-19T00:33:49.150Z,983.15
2019-03-19T00:34:49.068Z,983.15
2019-03-19T00:35:49.079Z,983.18
2019-03-19T00:36:48.972Z,983.17
2019-03-19T00:37:48.884Z,983.19
2019-03-19T00:38:48.718Z,983.23
2019-03-19T00:39:48.712Z,983.26
2019-03-19T00:40:48.649Z,983.30
2019-03-19T00:41:48.470Z,983.29
2019-03-19T00:42:48.376Z,983.28
2019-03-19T00:43:48.345Z,983.29
2019-03-19T00:44:48.252Z,983.26
2019-03-19T00:45:48.143Z,983.25
2019-03-19T00:46:48.090Z,983.24
2019-03-19T00:47:48.014Z,983.27
2019-03-19T00:48:47.896Z,983.24
2019-03-19T00:49:47.843Z,983.24
2019-03-19T00:50:47.753Z,983.23
2019-03-19T00:51:47.627Z,983.18
2019-03-19T00:52:47.579Z,983.21
2019-03-19T00:53:47.456Z,983.17
2019-03-19T00:54:47.445Z,983.21
2019-03-19T00:55:47.329Z,983.24
2019-03-19T00:56:47.283Z,983.24
2019-03-19T00:57:47.205Z,983.26
2019-03-19T00:58:47.077Z,983.29
2019-03-19T00:59:47.005Z,983.27
2019-03-19T01:00:46.971Z,983.27
2019-03-19T01:01:46.794Z,983.28
2019-03-19T01:02:46.763Z,983.26
2019-03-19T01:03:46.614Z,983.25
2019-03-19T01:04:46.664Z,983.21
2019-03-19T01:05:46.529Z,983.21
2019-03-19T01:06:46.455Z,983.19
2019-03-19T01:07:46.342Z,983.20
2019-03-19T01:08:46.267Z,983.19
2019-03-19T01:09:46.322Z,983.21
2019-03-19T01:10:46.124Z,983.18
2019-03-19T01:11:46.049Z,983.15
2019-03-19T01:12:45.908Z,983.16
2019-03-19T01:13:45.779Z,983.19
2019-03-19T01:14:45.794Z,983.17
2019-03-19T01:15:45.774Z,983.16
2019-03-19T01:16:45.625Z,983.19
2019-03-19T01:17:45.547Z,983.17
2019-03-19T01:18:45.364Z,983.21
2019-03-19T01:19:45.279Z,983.18
2019-03-19T01:20:45.221Z,983.21
2019-03-19T01:21:45.108Z,983.20
2019-03-19T01:22:45.093Z,983.21
2019-03-19T01:23:45.009Z,983.20
2019-03-19T01:24:44.888Z,983.17
2019-03-19T01:25:55.335Z,983.19
2019-03-19T01:26:44.768Z,983.15
2019-03-19T01:27:44.687Z,983.20
2019-03-19T01:28:44.631Z,983.17
2019-03-19T01:29:44.538Z,983.20
2019-03-19T01:30:44.404Z,983.21
2019-03-19T01:31:44.280Z,983.17
2019-03-19T01:32:44.251Z,983.22
2019-03-19T01:33:44.206Z,983.21
2019-03-19T01:34:44.090Z,983.19
2019-03-19T01:35:44.008Z,983.21
2019-03-19T01:36:43.858Z,983.21
2019-03-19T01:37:43.819Z,983.18
2019-03-19T01:38:43.755Z,983.21
2019-03-19T01:39:43.664Z,983.22
2019-03-19T01:40:43.582Z,983.21
2019-03-19T01:41:43.444Z,983.22
2019-03-19T01:42:43.406Z,983.23
2019-03-19T01:43:43.348Z,983.22
2019-03-19T01:44:43.345Z,983.23
2019-03-19T01:45:43.202Z,983.24
2019-03-19T01:46:43.028Z,983.27
2019-03-19T01:47:42.982Z,983.22
2019-03-19T01:48:42.851Z,983.27
2019-03-19T01:49:42.845Z,983.29
2019-03-19T01:50:42.758Z,983.31
2019-03-19T01:51:42.748Z,983.25
2019-03-19T01:52:42.558Z,983.23
2019-03-19T01:53:42.498Z,983.28
2019-03-19T01:54:42.352Z,983.30
2019-03-19T01:55:42.314Z,983.26
2019-03-19T01:56:42.182Z,983.31
2019-03-19T01:57:42.096Z,983.30
2019-03-19T01:58:42.011Z,983.28
2019-03-19T01:59:41.980Z,983.30
2019-03-19T02:00:41.921Z,983.30
2019-03-19T02:01:41.761Z,983.30
2019-03-19T02:02:41.697Z,983.32
2019-03-19T02:03:41.683Z,983.31
2019-03-19T02:04:41.651Z,983.33
2019-03-19T02:05:41.510Z,983.33
2019-03-19T02:06:41.417Z,983.32
2019-03-19T02:07:41.261Z,983.34
2019-03-19T02:08:41.241Z,983.38
2019-03-19T02:09:41.207Z,983.40
2019-03-19T02:10:41.011Z,983.40
2019-03-19T02:11:41.034Z,983.40
2019-03-19T02:12:40.917Z,983.37
2019-03-19T02:13:40.796Z,983.44
2019-03-19T02:14:40.700Z,983.40
2019-03-19T02:15:40.590Z,983.39
2019-03-19T02:16:40.547Z,983.37
2019-03-19T02:17:40.465Z,983.35
2019-03-19T02:18:40.350Z,983.38
2019-03-19T02:19:40.286Z,983.38
2019-03-19T02:20:40.228Z,983.36
2019-03-19T02:21:40.171Z,983.41
2019-03-19T02:22:40.074Z,983.41
2019-03-19T02:23:39.942Z,983.42
2019-03-19T02:24:39.914Z,983.46
2019-03-19T02:25:39.756Z,983.41
2019-03-19T02:26:39.720Z,983.45
2019-03-19T02:27:39.670Z,983.41
2019-03-19T02:28:39.578Z,983.40
2019-03-19T02:29:39.419Z,983.40
2019-03-19T02:30:39.430Z,983.43
2019-03-19T02:31:39.301Z,983.43
2019-03-19T02:32:39.174Z,983.47
2019-03-19T02:33:39.130Z,983.47
2019-03-19T02:34:38.997Z,983.46
2019-03-19T02:35:38.991Z,983.47
2019-03-19T02:36:38.840Z,983.45
2019-03-19T02:37:38.754Z,983.46
2019-03-19T02:38:38.660Z,983.50
2019-03-19T02:39:38.587Z,983.56
2019-03-19T02:40:38.551Z,983.55
2019-03-19T02:41:38.462Z,983.57
2019-03-19T02:42:38.353Z,983.55
2019-03-19T02:43:38.310Z,983.59
2019-03-19T02:44:38.265Z,983.61
2019-03-19T02:45:38.067Z,983.64
2019-03-19T02:46:38.033Z,983.67
2019-03-19T02:47:37.955Z,983.70
2019-03-19T02:48:37.838Z,983.65
2019-03-19T02:49:37.754Z,983.70
2019-03-19T02:50:37.696Z,983.69
2019-03-19T02:51:37.565Z,983.67
2019-03-19T02:52:37.517Z,983.68
2019-03-19T02:53:37.415Z,983.68
2019-03-19T02:54:37.346Z,983.73
2019-03-19T02:55:37.238Z,983.71
2019-03-19T02:56:37.163Z,983.73
2019-03-19T02:57:37.120Z,983.76
2019-03-19T02:58:37.023Z,983.77
2019-03-19T02:59:36.905Z,983.76
2019-03-19T03:00:36.867Z,983.78
2019-03-19T03:01:36.753Z,983.78
2019-03-19T03:02:36.667Z,983.80
2019-03-19T03:03:36.652Z,983.79
2019-03-19T03:04:36.530Z,983.76
2019-03-19T03:05:36.440Z,983.71
2019-03-19T03:06:36.392Z,983.70
2019-03-19T03:07:36.307Z,983.68
2019-03-19T03:08:36.243Z,983.72
2019-03-19T03:09:36.050Z,983.70
2019-03-19T03:10:35.994Z,983.73
2019-03-19T03:11:35.947Z,983.72
2019-03-19T03:12:35.806Z,983.74
2019-03-19T03:13:35.718Z,983.75
2019-03-19T03:14:35.649Z,983.77
2019-03-19T03:15:35.596Z,983.78
2019-03-19T03:16:35.469Z,983.79
2019-03-19T03:17:35.510Z,983.80
2019-03-19T03:18:35.332Z,983.82
2019-03-19T03:19:35.276Z,983.85
2019-03-19T03:20:35.221Z,983.84
2019-03-19T03:21:35.111Z,983.89
2019-03-19T03:22:35.053Z,983.89
2019-03-19T03:23:34.936Z,983.89
2019-03-19T03:24:34.823Z,983.90
2019-03-19T03:25:34.779Z,983.91
2019-03-19T03:26:46.939Z,983.89
2019-03-19T03:27:34.573Z,983.91
2019-03-19T03:28:34.462Z,983.91
2019-03-19T03:29:34.432Z,983.95
2019-03-19T03:30:34.338Z,983.95
2019-03-19T03:31:34.301Z,983.92
2019-03-19T03:32:34.177Z,983.92
2019-03-19T03:33:34.042Z,983.97
2019-03-19T03:34:34.008Z,983.97
2019-03-19T03:35:33.921Z,983.95
2019-03-19T03:36:33.781Z,983.98
2019-03-19T03:37:33.702Z,983.95
2019-03-19T03:38:33.625Z,984.01
2019-03-19T03:39:33.525Z,984.02
2019-03-19T03:40:33.443Z,983.98
2019-03-19T03:41:33.424Z,984.00
2019-03-19T03:42:33.281Z,983.98
2019-03-19T03:43:33.200Z,983.99
2019-03-19T03:44:33.113Z,984.02
2019-03-19T03:45:33.029Z,984.02
2019-03-19T03:46:32.980Z,984.00
2019-03-19T03:47:32.890Z,984.02
2019-03-19T03:48:32.768Z,984.06
2019-03-19T03:49:32.685Z,984.10
2019-03-19T03:50:32.657Z,984.14
2019-03-19T03:51:32.524Z,984.14
2019-03-19T03:52:32.488Z,984.10
2019-03-19T03:53:32.350Z,984.13
2019-03-19T03:54:32.263Z,984.12
2019-03-19T03:55:32.194Z,984.11
2019-03-19T03:56:32.164Z,984.12
2019-03-19T03:57:32.057Z,984.14
2019-03-19T03:58:31.984Z,984.16
2019-03-19T03:59:31.905Z,984.16
2019-03-19T04:00:31.841Z,984.19
2019-03-19T04:01:31.799Z,984.21
2019-03-19T04:02:31.655Z,984.22
2019-03-19T04:03:31.549Z,984.17
2019-03-19T04:04:31.459Z,984.20
2019-03-19T04:05:31.399Z,984.16
2019-03-19T04:06:31.306Z,984.18
2019-03-19T04:07:31.248Z,984.20
2019-03-19T04:08:31.177Z,984.20
2019-03-19T04:09:31.038Z,984.22
2019-03-19T04:10:30.925Z,984.20
2019-03-19T04:11:30.843Z,984.22
2019-03-19T04:12:30.799Z,984.26
2019-03-19T04:13:30.697Z,984.22
2019-03-19T04:14:30.633Z,984.27
2019-03-19T04:15:30.557Z,984.26
2019-03-19T04:16:30.519Z,984.30
2019-03-19T04:17:30.366Z,984.27
2019-03-19T04:18:30.309Z,984.25
2019-03-19T04:19:30.198Z,984.27
2019-03-19T04:20:30.092Z,984.29
2019-03-19T04:21:29.995Z,984.31
2019-03-19T04:22:29.939Z,984.35
2019-03-19T04:23:29.896Z,984.35
2019-03-19T04:24:29.806Z,984.29
2019-03-19T04:25:29.650Z,984.29
2019-03-19T04:26:29.626Z,984.28
2019-03-19T04:27:29.588Z,984.26
2019-03-19T04:28:29.442Z,984.27
2019-03-19T04:29:29.404Z,984.24
2019-03-19T04:30:29.275Z,984.27
2019-03-19T04:31:29.176Z,984.30
2019-03-19T04:32:29.126Z,984.31
2019-03-19T04:33:29.074Z,984.33
2019-03-19T04:34:28.943Z,984.32
2019-03-19T04:35:28.878Z,984.36
2019-03-19T04:36:28.840Z,984.31
2019-03-19T04:37:28.690Z,984.34
2019-03-19T04:38:28.602Z,984.36
2019-03-19T04:39:28.605Z,984.38
2019-03-19T04:40:28.447Z,984.44
2019-03-19T04:41:28.307Z,984.39
2019-03-19T04:42:28.220Z,984.43
2019-03-19T04:43:28.139Z,984.46
2019-03-19T04:44:28.046Z,984.41
2019-03-19T04:45:27.966Z,984.46
2019-03-19T04:46:27.874Z,984.43
2019-03-19T04:47:27.797Z,984.41
2019-03-19T04:48:27.703Z,984.43
2019-03-19T04:49:27.684Z,984.47
2019-03-19T04:50:27.554Z,984.46
2019-03-19T04:51:27.516Z,984.53
2019-03-19T04:52:27.399Z,984.49
2019-03-19T04:53:27.337Z,984.52
2019-03-19T04:54:27.263Z,984.51
2019-03-19T04:55:27.124Z,984.53
2019-03-19T04:56:27.071Z,984.51
2019-03-19T04:57:27.322Z,984.56
2019-03-19T04:58:26.922Z,984.53
2019-03-19T04:59:26.784Z,984.51
2019-03-19T05:00:26.696Z,984.53
2019-03-19T05:01:26.612Z,984.52
2019-03-19T05:02:26.567Z,984.55
2019-03-19T05:03:26.498Z,984.53
2019-03-19T05:04:26.361Z,984.54
2019-03-19T05:05:26.308Z,984.55
2019-03-19T05:06:26.203Z,984.55
2019-03-19T05:07:26.100Z,984.57
2019-03-19T05:08:26.017Z,984.56
2019-03-19T05:09:25.929Z,984.53
2019-03-19T05:10:25.860Z,984.51
2019-03-19T05:11:25.821Z,984.52
2019-03-19T05:12:25.681Z,984.54
2019-03-19T05:13:25.597Z,984.54
2019-03-19T05:14:25.536Z,984.61
2019-03-19T05:15:25.424Z,984.64
2019-03-19T05:16:25.400Z,984.65
2019-03-19T05:17:25.270Z,984.64
2019-03-19T05:18:25.240Z,984.66
2019-03-19T05:19:25.123Z,984.69
2019-03-19T05:20:25.031Z,984.71
2019-03-19T05:21:24.915Z,984.72
2019-03-19T05:22:24.836Z,984.76
2019-03-19T05:23:24.744Z,984.76
2019-03-19T05:24:24.706Z,984.76
2019-03-19T05:25:24.578Z,984.84
2019-03-19T05:26:24.501Z,984.82
2019-03-19T05:27:24.410Z,984.80
2019-03-19T05:28:24.319Z,984.75
2019-03-19T05:29:24.232Z,984.79
2019-03-19T05:30:24.159Z,984.75
2019-03-19T05:31:24.112Z,984.81
2019-03-19T05:32:24.042Z,984.86
2019-03-19T05:33:23.956Z,984.89
2019-03-19T05:34:23.866Z,984.90
2019-03-19T05:35:23.735Z,984.91
2019-03-19T05:36:23.693Z,984.91
2019-03-19T05:37:23.573Z,984.97
2019-03-19T05:38:23.468Z,984.99
2019-03-19T05:39:23.384Z,985.02
2019-03-19T05:40:23.330Z,984.98
2019-03-19T05:41:23.237Z,984.98
2019-03-19T05:42:23.211Z,984.95
2019-03-19T05:43:23.165Z,984.99
2019-03-19T05:44:22.984Z,984.97
2019-03-19T05:45:22.881Z,984.98
2019-03-19T05:46:22.866Z,984.98
2019-03-19T05:47:22.716Z,985.01
2019-03-19T05:48:22.722Z,985.05
2019-03-19T05:49:22.576Z,985.04
2019-03-19T05:50:22.527Z,985.06
2019-03-19T05:51:22.379Z,985.10
2019-03-19T05:52:22.360Z,985.13
2019-03-19T05:53:22.212Z,985.16
2019-03-19T05:54:22.165Z,985.19
2019-03-19T05:55:22.068Z,985.18
2019-03-19T05:56:21.976Z,985.21
2019-03-19T05:57:21.862Z,985.26
2019-03-19T05:58:21.822Z,985.25
2019-03-19T05:59:21.743Z,985.30
2019-03-19T06:00:21.629Z,985.31
2019-03-19T06:01:21.523Z,985.30
2019-03-19T06:02:21.484Z,985.30
2019-03-19T06:03:21.359Z,985.27
2019-03-19T06:04:21.316Z,985.27
2019-03-19T06:05:21.574Z,985.33
2019-03-19T06:06:21.158Z,985.32
2019-03-19T06:07:21.021Z,985.32
2019-03-19T06:08:27.249Z,985.34
2019-03-19T06:09:20.941Z,985.35
2019-03-19T06:10:20.854Z,985.39
2019-03-19T06:11:20.764Z,985.42
2019-03-19T06:12:20.694Z,985.42
2019-03-19T06:13:20.564Z,985.44
2019-03-19T06:14:20.531Z,985.39
2019-03-19T06:15:20.483Z,985.41
2019-03-19T06:16:20.255Z,985.45
2019-03-19T06:17:20.224Z,985.45
2019-03-19T06:18:20.194Z,985.47
2019-03-19T06:19:20.104Z,985.49
2019-03-19T06:20:19.984Z,985.53
2019-03-19T06:21:19.898Z,985.49
2019-03-19T06:22:19.842Z,985.48
2019-03-19T06:23:19.746Z,985.45
2019-03-19T06:24:19.877Z,985.46
2019-03-19T06:25:19.546Z,985.48
2019-03-19T06:26:19.483Z,985.50
2019-03-19T06:27:19.425Z,985.52
2019-03-19T06:28:19.355Z,985.54
2019-03-19T06:29:19.335Z,985.52
2019-03-19T06:30:19.111Z,985.50
2019-03-19T06:31:19.094Z,985.54
2019-03-19T06:32:18.968Z,985.54
2019-03-19T06:33:18.909Z,985.53
2019-03-19T06:34:18.754Z,985.48
2019-03-19T06:35:18.765Z,985.49
2019-03-19T06:36:18.679Z,985.50
2019-03-19T06:37:18.547Z,985.50
2019-03-19T06:38:18.521Z,985.49
2019-03-19T06:39:18.354Z,985.48
2019-03-19T06:40:18.237Z,985.50
2019-03-19T06:41:18.262Z,985.52
2019-03-19T06:42:18.208Z,985.50
2019-03-19T06:43:18.036Z,985.49
2019-03-19T06:44:17.952Z,985.51
2019-03-19T06:45:17.907Z,985.51
2019-03-19T06:46:17.851Z,985.55
2019-03-19T06:47:17.741Z,985.54
2019-03-19T06:48:17.680Z,985.57
2019-03-19T06:49:17.518Z,985.52
2019-03-19T06:50:17.470Z,985.52
2019-03-19T06:51:17.373Z,985.49
2019-03-19T06:52:17.222Z,985.54
2019-03-19T06:53:17.233Z,985.56
2019-03-19T06:54:17.051Z,985.57
2019-03-19T06:55:17.010Z,985.60
2019-03-19T06:56:16.916Z,985.61
2019-03-19T06:57:16.919Z,985.62
2019-03-19T06:58:16.884Z,985.59
2019-03-19T06:59:16.718Z,985.63
2019-03-19T07:00:16.614Z,985.66
2019-03-19T07:01:17.567Z,985.65
2019-03-19T07:02:16.490Z,985.69
2019-03-19T07:03:16.394Z,985.70
2019-03-19T07:04:16.247Z,985.68
2019-03-19T07:05:16.218Z,985.68
2019-03-19T07:06:16.152Z,985.66
2019-03-19T07:07:16.107Z,985.75
2019-03-19T07:08:15.951Z,985.73
2019-03-19T07:09:15.879Z,985.77
2019-03-19T07:10:15.753Z,985.77
2019-03-19T07:11:15.697Z,985.77
2019-03-19T07:12:15.544Z,985.77
2019-03-19T07:13:15.532Z,985.75
2019-03-19T07:14:15.502Z,985.78
2019-03-19T07:15:15.282Z,985.81
2019-03-19T07:16:15.330Z,985.79
2019-03-19T07:17:15.202Z,985.84
2019-03-19T07:18:15.141Z,985.84
2019-03-19T07:19:14.975Z,985.89
2019-03-19T07:20:14.962Z,985.87
2019-03-19T07:21:14.884Z,985.88
2019-03-19T07:22:14.689Z,985.90
2019-03-19T07:23:14.666Z,985.91
2019-03-19T07:24:14.625Z,985.98
2019-03-19T07:25:14.446Z,985.99
2019-03-19T07:26:14.488Z,986.00
2019-03-19T07:27:14.348Z,986.00
2019-03-19T07:28:21.885Z,986.03
2019-03-19T07:29:14.190Z,986.01
2019-03-19T07:30:14.175Z,986.05
2019-03-19T07:31:14.054Z,985.99
2019-03-19T07:32:13.952Z,986.05
2019-03-19T07:33:13.786Z,986.01
2019-03-19T07:34:13.761Z,986.06
2019-03-19T07:35:13.617Z,986.04
2019-03-19T07:36:14.060Z,986.04
2019-03-19T07:46:12.586Z,986.05
2019-03-19T07:47:13.797Z,986.08
2019-03-19T07:48:15.883Z,986.09
2019-03-19T08:13:47.433Z,986.36
2019-03-19T14:13:10.642Z,987.09
2019-03-19T14:14:10.999Z,987.11
